createdAt,value
2023-05-17T00:03:07.374Z,8.30
2023-05-17T00:08:09.113Z,7.70
2023-05-17T00:13:10.692Z,8.05
2023-05-17T00:18:12.328Z,10.52
2023-05-17T00:23:14.152Z,10.85
2023-05-17T00:28:15.830Z,9.77
2023-05-17T00:33:17.425Z,7.60
2023-05-17T00:38:19.055Z,8.48
2023-05-17T00:43:20.775Z,10.65
2023-05-17T00:48:22.781Z,6.97
2023-05-17T00:53:26.366Z,9.68
2023-05-17T00:58:28.066Z,7.88
2023-05-17T01:03:29.767Z,8.90
2023-05-17T01:08:32.254Z,7.68
2023-05-17T01:13:42.288Z,9.55
2023-05-17T01:18:58.407Z,6.40
2023-05-17T01:24:28.643Z,8.73
2023-05-17T01:29:32.088Z,9.43
2023-05-17T01:34:35.145Z,7.80
2023-05-17T01:39:37.842Z,6.15
2023-05-17T01:44:48.464Z,9.50
2023-05-17T01:49:54.017Z,9.52
2023-05-17T01:55:10.572Z,9.43
2023-05-17T02:00:13.856Z,13.18
2023-05-17T02:05:20.232Z,7.20
2023-05-17T02:10:22.000Z,6.07
2023-05-17T02:15:23.593Z,9.48
2023-05-17T02:20:25.254Z,9.23
2023-05-17T02:25:27.014Z,6.93
2023-05-17T02:30:28.854Z,10.20
2023-05-17T02:35:31.662Z,8.70
2023-05-17T02:40:33.324Z,8.95
2023-05-17T02:45:37.582Z,10.13
2023-05-17T02:50:40.207Z,12.23
2023-05-17T02:55:41.767Z,8.95
2023-05-17T03:00:46.593Z,11.52
2023-05-17T03:05:49.806Z,8.52
2023-05-17T03:10:51.835Z,11.20
2023-05-17T03:15:53.742Z,14.77
2023-05-17T03:20:55.819Z,10.63
2023-05-17T03:25:57.981Z,17.35
2023-05-17T03:31:01.455Z,12.10
2023-05-17T03:36:06.572Z,16.40
2023-05-17T03:41:08.313Z,14.35
2023-05-17T03:46:10.231Z,17.67
2023-05-17T03:51:12.335Z,14.70
2023-05-17T03:56:14.215Z,16.40
2023-05-17T04:01:16.423Z,22.30
2023-05-17T04:06:18.302Z,17.65
2023-05-17T04:11:20.013Z,20.13
2023-05-17T04:16:21.602Z,27.27
2023-05-17T04:21:23.396Z,23.15
2023-05-17T04:26:26.650Z,16.25
2023-05-17T04:31:28.197Z,21.00
2023-05-17T04:36:29.875Z,22.02
2023-05-17T04:41:31.874Z,17.48
2023-05-17T04:46:34.338Z,17.45
2023-05-17T04:51:36.163Z,17.30
2023-05-17T04:56:37.935Z,14.63
2023-05-17T05:06:46.448Z,12.52
2023-05-17T05:11:49.821Z,19.13
2023-05-17T05:16:51.735Z,15.77
2023-05-17T05:21:53.609Z,18.27
2023-05-17T05:26:55.335Z,12.23
2023-05-17T05:31:58.060Z,15.20
2023-05-17T05:37:00.349Z,19.13
2023-05-17T05:42:02.187Z,13.27
2023-05-17T05:47:04.978Z,17.58
2023-05-17T05:52:06.663Z,15.45
2023-05-17T05:57:08.417Z,22.73
2023-05-17T06:02:10.374Z,23.38
2023-05-17T06:07:12.859Z,17.65
2023-05-17T06:12:14.420Z,19.48
2023-05-17T06:17:15.969Z,22.63
2023-05-17T06:22:17.582Z,24.17
2023-05-17T06:27:20.400Z,30.45
2023-05-17T06:32:21.991Z,40.95
2023-05-17T06:37:24.505Z,38.30
2023-05-17T06:42:26.043Z,30.38
2023-05-17T06:47:27.645Z,27.20
2023-05-17T06:52:29.407Z,25.75
2023-05-17T06:57:31.212Z,17.88
2023-05-17T07:02:34.599Z,18.60
2023-05-17T07:07:36.490Z,13.77
2023-05-17T07:12:38.052Z,14.35
2023-05-17T07:17:40.412Z,12.77
2023-05-17T07:22:42.172Z,11.13
2023-05-17T07:27:43.703Z,9.75
2023-05-17T07:32:45.417Z,11.93
2023-05-17T07:37:46.995Z,13.07
2023-05-17T07:42:48.721Z,14.07
2023-05-17T07:47:50.387Z,15.18
2023-05-17T07:52:52.051Z,9.23
2023-05-17T07:57:53.700Z,11.77
2023-05-17T08:02:56.763Z,12.82
2023-05-17T08:07:58.427Z,9.98
2023-05-17T08:13:00.043Z,8.27
2023-05-17T08:18:04.413Z,8.90
2023-05-17T08:23:06.509Z,7.20
2023-05-17T08:28:08.332Z,4.78
2023-05-17T08:33:10.363Z,7.32
2023-05-17T08:38:11.947Z,7.32
2023-05-17T08:43:14.643Z,5.60
2023-05-17T08:48:16.453Z,6.30
2023-05-17T08:53:18.475Z,5.65
2023-05-17T08:58:23.709Z,5.25
2023-05-17T09:03:26.644Z,6.43
2023-05-17T09:08:28.517Z,4.63
2023-05-17T09:13:30.187Z,7.28
2023-05-17T09:18:32.541Z,4.95
2023-05-17T09:23:34.166Z,7.32
2023-05-17T09:28:40.633Z,6.00
2023-05-17T09:33:45.763Z,6.70
2023-05-17T09:38:56.548Z,7.38
2023-05-17T09:44:00.648Z,6.85
2023-05-17T09:49:03.343Z,4.40
2023-05-17T09:54:07.154Z,7.97
2023-05-17T09:59:15.968Z,6.57
2023-05-17T10:04:19.764Z,9.02
2023-05-17T10:09:22.883Z,11.32
2023-05-17T10:14:30.330Z,7.45
2023-05-17T10:19:32.863Z,5.75
2023-05-17T10:24:35.794Z,7.53
2023-05-17T10:29:39.131Z,8.23
2023-05-17T10:34:40.804Z,7.07
2023-05-17T10:39:42.388Z,6.57
2023-05-17T10:44:44.036Z,4.95
2023-05-17T10:49:45.676Z,6.22
2023-05-17T10:54:49.075Z,8.32
2023-05-17T10:59:59.482Z,5.80
2023-05-17T11:05:01.372Z,5.47
2023-05-17T11:10:11.608Z,4.40
2023-05-17T11:15:16.558Z,7.35
2023-05-17T11:20:24.145Z,4.93
2023-05-17T11:25:31.646Z,8.35
2023-05-17T11:30:33.531Z,4.30
2023-05-17T11:35:37.219Z,5.25
2023-05-17T11:40:38.879Z,7.60
2023-05-17T11:45:47.980Z,5.97
2023-05-17T11:50:52.189Z,6.32
2023-05-17T11:55:53.771Z,9.05
2023-05-17T12:00:59.144Z,8.55
2023-05-17T12:06:06.921Z,8.90
2023-05-17T12:11:15.634Z,5.78
2023-05-17T12:16:21.778Z,5.70
2023-05-17T12:21:23.541Z,6.43
2023-05-17T12:26:25.178Z,5.13
2023-05-17T12:31:34.683Z,6.97
2023-05-17T12:36:36.838Z,7.45
2023-05-17T12:41:39.718Z,8.13
2023-05-17T12:46:41.443Z,7.13
2023-05-17T12:51:46.598Z,5.53
2023-05-17T12:56:48.227Z,4.53
2023-05-17T13:01:51.692Z,7.97
2023-05-17T13:06:56.202Z,5.35
2023-05-17T13:11:59.529Z,6.88
2023-05-17T13:17:05.299Z,10.07
2023-05-17T13:22:07.372Z,5.25
2023-05-17T13:27:09.661Z,7.57
2023-05-17T13:32:13.125Z,6.72
2023-05-17T13:37:14.710Z,7.55
2023-05-17T13:42:16.297Z,5.68
2023-05-17T13:47:17.886Z,6.70
2023-05-17T13:52:19.434Z,3.83
2023-05-17T13:57:21.058Z,5.63
2023-05-17T14:02:22.657Z,6.18
2023-05-17T14:07:24.365Z,7.35
2023-05-17T14:12:25.935Z,5.82
2023-05-17T14:17:27.559Z,4.68
2023-05-17T14:22:29.211Z,5.72
2023-05-17T14:27:30.819Z,5.80
2023-05-17T14:32:32.443Z,7.50
2023-05-17T14:37:34.211Z,4.93
2023-05-17T14:42:35.909Z,5.43
2023-05-17T14:47:37.534Z,7.93
2023-05-17T14:52:39.122Z,6.47
2023-05-17T14:57:40.685Z,6.20
2023-05-17T15:02:42.255Z,4.43
2023-05-17T15:07:43.928Z,5.65
2023-05-17T15:12:45.493Z,6.32
2023-05-17T15:17:47.050Z,7.38
2023-05-17T15:22:48.638Z,5.78
2023-05-17T15:27:50.244Z,5.75
2023-05-17T15:32:51.811Z,5.65
2023-05-17T15:37:53.600Z,5.03
2023-05-17T15:42:55.220Z,7.18
2023-05-17T15:47:56.775Z,5.50
2023-05-17T15:52:58.943Z,8.18
2023-05-17T15:58:01.845Z,4.85
2023-05-17T16:03:04.219Z,7.32
2023-05-17T16:08:06.751Z,7.38
2023-05-17T16:13:08.396Z,7.30
2023-05-17T16:18:10.167Z,6.78
2023-05-17T16:23:12.232Z,5.57
2023-05-17T16:28:13.763Z,5.93
2023-05-17T16:33:15.481Z,5.10
2023-05-17T16:38:17.110Z,6.22
2023-05-17T16:43:18.785Z,5.70
2023-05-17T16:48:20.681Z,9.63
2023-05-17T16:53:22.436Z,6.30
2023-05-17T16:58:24.026Z,7.25
2023-05-17T17:03:25.700Z,4.53
2023-05-17T17:08:27.295Z,6.15
2023-05-17T17:13:28.843Z,9.23
2023-05-17T17:18:30.381Z,6.95
2023-05-17T17:23:31.924Z,9.88
2023-05-17T17:28:33.645Z,4.60
2023-05-17T17:33:35.939Z,7.93
2023-05-17T17:38:37.798Z,7.88
2023-05-17T17:43:39.416Z,7.38
2023-05-17T17:48:40.991Z,5.22
2023-05-17T17:53:42.581Z,6.18
2023-05-17T17:58:44.177Z,7.07
2023-05-17T18:03:45.745Z,5.97
2023-05-17T18:08:47.305Z,9.85
2023-05-17T18:13:48.875Z,4.75
2023-05-17T18:18:50.519Z,5.93
2023-05-17T18:23:52.153Z,6.35
2023-05-17T18:28:53.709Z,4.53
2023-05-17T18:33:57.208Z,4.93
2023-05-17T18:38:59.001Z,10.20
2023-05-17T18:44:00.699Z,10.57
2023-05-17T18:49:02.272Z,9.73
2023-05-17T18:54:03.902Z,6.80
2023-05-17T18:59:05.531Z,7.07
2023-05-17T19:04:07.141Z,7.75
2023-05-17T19:09:08.708Z,9.82
2023-05-17T19:14:10.428Z,12.25
2023-05-17T19:19:12.136Z,6.68
2023-05-17T19:24:13.803Z,6.97
2023-05-17T19:29:15.371Z,6.13
2023-05-17T19:34:16.929Z,12.20
2023-05-17T19:39:18.600Z,5.25
2023-05-17T19:44:20.285Z,12.75
2023-05-17T19:49:21.886Z,7.55
2023-05-17T19:54:23.438Z,6.85
2023-05-17T19:59:25.178Z,7.10
2023-05-17T20:04:26.715Z,9.05
2023-05-17T20:09:28.364Z,7.60
2023-05-17T20:14:29.974Z,7.07
2023-05-17T20:19:31.653Z,7.00
2023-05-17T20:24:33.533Z,5.25
2023-05-17T20:29:35.158Z,8.98
2023-05-17T20:34:36.718Z,8.70
2023-05-17T20:39:38.294Z,11.10
2023-05-17T20:44:39.887Z,10.43
2023-05-17T20:49:41.413Z,9.68
2023-05-17T20:54:43.047Z,14.30
2023-05-17T20:59:44.585Z,8.98
2023-05-17T21:04:46.244Z,9.48
2023-05-17T21:09:47.891Z,9.82
2023-05-17T21:14:59.846Z,9.60
2023-05-17T21:20:10.184Z,7.55
2023-05-17T21:25:11.774Z,6.07
2023-05-17T21:30:13.447Z,37.85
2023-05-17T21:35:15.047Z,9.52
2023-05-17T21:40:16.726Z,13.45
2023-05-17T21:45:18.302Z,8.02
2023-05-17T21:50:19.959Z,5.47
2023-05-17T21:55:21.584Z,10.65
2023-05-17T22:00:23.131Z,8.93
2023-05-17T22:05:24.730Z,7.68
2023-05-17T22:10:26.362Z,9.73
2023-05-17T22:15:28.054Z,7.93
2023-05-17T22:20:29.967Z,12.55
2023-05-17T22:25:32.300Z,8.65
2023-05-17T22:30:34.199Z,4.70
2023-05-17T22:35:36.060Z,8.63
2023-05-17T22:40:37.742Z,12.18
2023-05-17T22:45:41.420Z,8.38
2023-05-17T22:50:43.107Z,8.00
2023-05-17T22:55:44.834Z,6.78
2023-05-17T23:00:47.009Z,6.38
2023-05-17T23:05:48.770Z,8.38
2023-05-17T23:10:50.423Z,7.97
2023-05-17T23:15:52.320Z,7.90
2023-05-17T23:20:53.921Z,7.70
2023-05-17T23:25:55.810Z,8.32
2023-05-17T23:30:57.422Z,10.88
2023-05-17T23:35:59.073Z,10.05
2023-05-17T23:41:00.713Z,5.40
2023-05-17T23:46:02.356Z,6.88
2023-05-17T23:51:04.462Z,12.73
2023-05-17T23:56:06.429Z,5.70
